LICC/CTA METAR and TAF weather

Enter ICAO airport designator
Station Type Date Time Source
LICC METAR 2019/10/14 06:20 UTC NOAA

LICC 140620Z 25006KT CAVOK 18/16 Q1022


Station Type Date Time Source
LICC Decoded METAR 2019/10/14 06:20 UTC NOAA

Catania / Fontanarossa, Italy (LICC) 37-28N 015-03E 17M
Oct 14, 2019 - 02:20 AM EDT / 2019.10.14 0620 UTC
Wind: from the WSW (250 degrees) at 7 MPH (6 KT):0
Visibility: greater than 7 mile(s):0
Temperature: 64 F (18 C)
Dew Point: 60 F (16 C)
Relative Humidity: 88%
Pressure (altimeter): 30.18 in. Hg (1022 hPa)
ob: LICC 140620Z 25006KT CAVOK 18/16 Q1022
cycle: 6

Station Type Date Time Source
LICC TAF 2019/10/14 06:24 UTC NOAA

TAF LICC 140500Z 1406/1506 25006KT 9999 FEW050
BECMG 1409/1411 09010KT
BECMG 1416/1418 VRB05KT

Example: see airport list